OYAA/ADE METAR and TAF weather

Enter ICAO airport designator
Station Type Date Time Source
OYAA METAR 2017/09/06 03:00 UTC NOAA

OYAA 060300Z CHECK TEXT NEW ENDING ADDED OEJNYFYX


Station Type Date Time Source
OYAA Decoded METAR 2017/09/06 03:00 UTC NOAA

Aden, Yemen (OYAA) 12-40N 045-02E 3M
Sep 05, 2017 - 11:00 PM EDT / 2017.09.06 0300 UTC
ob: OYAA 060300Z CHECK TEXT NEW ENDING ADDED OEJNYFYX
cycle: 3

Station Type Date Time Source
OYAA TAF 2015/03/25 12:09 UTC NOAA

TAF TAF OYAA 250822Z 2512/2618 12015KT 8000 SCT020 SCT200
TEMPO 2600/2606 -RA BKN015


Example: see airport list